CheckWX is a tool to help pilots better visualize weather data.  It is not intended as a substitute for an official pre-flight weather briefing.

09:24:42 UTC

KBWI METAR
Baltimore / Washington International Thurgood Marshall Airport
Baltimore, Maryland, USA
Current

31 mins ago

KBWI 200854Z 10005KT 10SM SCT090 OVC130 01/M08 A3054 RMK AO2 SLP344 T00061083 58018
Observed
Feb-20 @ 08:54 UTC
Wind
  • 100° at 5 KTS
Visibility
16,093 meters
Flight Rules
VFR
Cloud Levels
  • Scattered at 9,000' AGL
  • Overcast at 13,000' AGL
Temperature
C / 34°F
Dewpoint
-8°C / 18°F
Humidity
51%
Altimeter
30.54" Hg
Pressure
1034.4 hPa
Previous

2 hours ago

KBWI 200754Z 09006KT 10SM OVC140 01/M09 A3056 RMK AO2 SLP349 T00061089
Observed
Feb-20 @ 07:54 UTC
Wind
  • 090° at 6 KTS
Visibility
16,093 meters
Flight Rules
VFR
Cloud Levels
  • Overcast at 14,000' AGL
Temperature
C / 34°F
Dewpoint
-9°C / 16°F
Humidity
48%
Altimeter
30.56" Hg
Pressure
1034.9 hPa
Previous

3 hours ago

KBWI 200654Z 00000KT 10SM OVC150 01/M09 A3060 RMK AO2 SLP362 T00061094
Observed
Feb-20 @ 06:54 UTC
Visibility
16,093 meters
Flight Rules
VFR
Cloud Levels
  • Overcast at 15,000' AGL
Temperature
C / 34°F
Dewpoint
-9°C / 16°F
Humidity
48%
Altimeter
30.6" Hg
Pressure
1036.2 hPa